グアルーリョス国際空港 (サンパウロ)の過去48時間の天気

グアルーリョス国際空港 (サンパウロ) (Guarulhos Civ / Mil )

現在時刻: 6/16 05:32 -03 (6/16 08:32 UTC) 以下の時間は現地時間です。

過去48時間のMETAR気象情報
時間 風向 風速(m/s) 視程 気温(℃) 湿度(%) 気圧(hPa) 天気現象
16 05:00 静穏 0 10km以上 17 94 1024
16 04:00 東南東 1 10km以上 17 94 1024
16 03:00 静穏 0 10km以上 16 100 1024
16 02:00 静穏 0 9000m 17 94 1024
16 01:00 静穏 0 8000m 17 94 1024
15 22:00 静穏 0 8000m 17 94 1025
15 21:00 東南東 1 10km以上 19 83 1024
15 20:00 静穏 0 10km以上 17 94 1024
15 19:00 東南東 2 10km以上 20 78 1023
15 18:00 北東 3 10km以上 21 69 1023
15 17:00 東北東 3 10km以上 25 54 1022
15 16:00 北北西 2 10km以上 26 48 1022
15 15:00 北北西 2 10km以上 27 45 1022
15 14:00 3 10km以上 27 45 1023
15 13:00 2 10km以上 26 45 1023
15 12:00 1 10km以上 25 54 1025
15 11:00 東北東 2 10km以上 24 61 1025
15 10:00 東北東 3 10km以上 22 69 1026
15 09:00 2 10km以上 20 78 1026
15 08:00 東北東 2 10km以上 16 94 1025
15 07:00 静穏 0 10km以上 13 100 1024
15 06:00 静穏 0 10km以上 14 100 1024
15 05:00 静穏 0 10km以上 13 100 1024
15 03:00 静穏 0 10km以上 15 100 1024
15 02:00 静穏 0 10km以上 16 94 1024
15 01:00 静穏 0 10km以上 17 94 1025
15 00:00 静穏 0 10km以上 16 100 1025
14 23:00 東北東 2 10km以上 16 94 1025
14 21:00 1 10km以上 19 83 1025
14 20:00 東北東 2 10km以上 20 78 1024
14 19:00 1 10km以上 20 73 1024
14 18:00 静穏 0 10km以上 20 73 1023
14 17:00 西北西 2 10km以上 25 50 1023
14 16:00 西北西 2 10km以上 27 42 1023
14 15:00 北北西 3 10km以上 27 45 1023
14 14:00 西 3 10km以上 27 42 1023
14 13:00 2 10km以上 26 45 1024
14 12:00 4 10km以上 26 48 1025
14 11:00 北東 3 10km以上 24 65 1025
14 10:00 北東 3 10km以上 22 69 1026
SBGR 160800Z 00000KT CAVOK 17/16 Q1024
SBGR 160700Z 12001KT CAVOK 17/16 Q1024
SBGR 160600Z 00000KT CAVOK 16/16 Q1024
SBGR 160500Z 00000KT 9000 NSC 17/16 Q1024
SBGR 160400Z 00000KT 8000 NSC 17/16 Q1024
SBGR 160100Z 00000KT 8000 NSC 17/16 Q1025
SBGR 160000Z 11002KT CAVOK 19/16 Q1024
SBGR 152300Z 00000KT CAVOK 17/16 Q1024
SBGR 152200Z 11003KT CAVOK 20/16 Q1023
SBGR 152100Z 05006KT CAVOK 21/15 Q1023
SBGR 152000Z 06005KT CAVOK 25/15 Q1022
SBGR 151900Z 33003KT CAVOK 26/14 Q1022
SBGR 151800Z 33004KT CAVOK 27/14 Q1022
SBGR 151700Z 36005KT CAVOK 27/14 Q1023
SBGR 151600Z 36004KT CAVOK 26/13 Q1023
SBGR 151500Z 09002KT 9999 SCT040 25/15 Q1025
SBGR 151400Z 06004KT CAVOK 24/16 Q1025
SBGR 151300Z 06005KT CAVOK 22/16 Q1026
SBGR 151200Z 08004KT CAVOK 20/16 Q1026
SBGR 151100Z 07003KT CAVOK 16/15 Q1025
SBGR 151000Z 00000KT CAVOK 13/13 Q1024
SBGR 150900Z 00000KT CAVOK 14/14 Q1024
SBGR 150800Z 00000KT CAVOK 13/13 Q1024
SBGR 150600Z 00000KT CAVOK 15/15 Q1024
SBGR 150500Z 00000KT CAVOK 16/15 Q1024
SBGR 150400Z 00000KT CAVOK 17/16 Q1025
SBGR 150300Z 00000KT CAVOK 16/16 Q1025
SBGR 150200Z 07003KT CAVOK 16/15 Q1025
SBGR 150000Z 09002KT CAVOK 19/16 Q1025
SBGR 142300Z 07004KT CAVOK 20/16 Q1024
SBGR 142200Z 10002KT CAVOK 20/15 Q1024
SBGR 142100Z 00000KT CAVOK 20/15 Q1023
SBGR 142000Z 30004KT CAVOK 25/14 Q1023
SBGR 141900Z 30004KT CAVOK 27/13 Q1023
SBGR 141800Z 33005KT CAVOK 27/14 Q1023
SBGR 141700Z 28005KT CAVOK 27/13 Q1023
SBGR 141600Z 36003KT CAVOK 26/13 Q1024
SBGR 141500Z 36007KT CAVOK 26/14 Q1025
SBGR 141400Z 05005KT CAVOK 24/17 Q1025
SBGR 141300Z 05006KT CAVOK 22/16 Q1026